• Join FlightAware (Why Join?)
  • Login
  • US Flag 
10:59AM EDT


 

Airport Tracker/Info


-or-


 

Live Flight TrackerFlight Track Log ✈ ASH2834 ✈ 26-Apr-2013 ✈ KPHX - KTUS

Flight Track Log - Related Links

Times and Time Zones

All times are in EDT time to prevent confusion due to time zone crossing. See the ASH2834 flight status page for this flight to view local times or setup timezone preferences in your user account.

Time Position Orientation Groundspeed Altitude Reporting Facility
EDT Latitude Longitude Course Direction KTS MPH feet Rate Location/Type
01:12AM 33.4333 -112.0333 148° Southeast 151 174 2,200  Level Phoenix TRACON
01:13AM 33.4247 -112.0542 244° Southwest 158 182 2,900 1,560 Climbing Albuquerque Center
01:14AM 33.3997 -112.1256 247° West 233 268 4,700 2,280 Climbing Albuquerque Center
01:15AM 33.3272 -112.1397 189° South 287 330 7,500 1,860 Climbing Albuquerque Center
01:16AM 33.2475 -112.1158 166° South 300 345 8,500 1,860 Climbing Albuquerque Center
01:17AM 32.8047 -111.8326 144° Southeast  Level FlightAware Approximate
01:17AM 33.1769 -112.0669 150° Southeast 297 342 11,300  Level Albuquerque Center
01:18AM 32.6954 -111.7465 148° Southeast  Level FlightAware Approximate
01:18AM 33.1058 -111.9903 138° Southeast 342 394 13,300  Level Albuquerque Center
01:19AM 33.0311 -111.9103 138° Southeast 360 414 15,500 1,740 Climbing Albuquerque Center
01:20AM 32.9517 -111.8256 138° Southeast 383 441 16,900 660 Climbing Albuquerque Center
01:21AM 32.8461 -111.7144 138° Southeast 423 487 16,900 -300 Level Albuquerque Center
01:22AM 32.7608 -111.6236 138° Southeast 414 476 16,400 -1,140 Descending Albuquerque Center
01:23AM 32.7081 -111.5728 141° Southeast 395 455 15,100 -2,280 Descending Albuquerque Center
01:23AM 32.6811 -111.5408 135° Southeast 386 444 14,100 -2,400 Descending Albuquerque Center
01:24AM 32.6331 -111.4939 141° Southeast 365 420 12,700 -2,220 Descending Albuquerque Center
01:24AM 32.6072 -111.4644 136° Southeast 360 414 11,900 -1,980 Descending Albuquerque Center
01:25AM 32.5561 -111.4158 141° Southeast 342 394 10,700 -1,380 Descending Albuquerque Center
01:25AM 32.5383 -111.3939 134° Southeast 338 389 10,500 -1,020 Descending Albuquerque Center
01:26AM 32.4967 -111.3508 139° Southeast 296 341 9,700 -1,200 Descending Albuquerque Center
01:26AM 32.4806 -111.3328 137° Southeast 290 334 9,300 -1,380 Descending Albuquerque Center
01:27AM 32.4436 -111.2969 141° Southeast 272 313 8,500 -1,200 Descending Albuquerque Center
01:27AM 32.4269 -111.2722 129° Southeast 275 316 8,100 -540 Descending Albuquerque Center
01:28AM 32.3897 -111.2408 145° Southeast 262 302 8,000 -540 Descending Albuquerque Center
01:28AM 32.3714 -111.2183 134° Southeast 264 304 7,600 -900 Descending Albuquerque Center
01:29AM 32.3442 -111.1925 141° Southeast 264 304 7,200 -900 Descending Albuquerque Center
01:29AM 32.3164 -111.1603 136° Southeast 264 304 6,700 -1,020 Descending Albuquerque Center
01:30AM 32.2828 -111.1308 143° Southeast 263 303 6,200 -720 Descending Albuquerque Center
01:30AM 32.2614 -111.1050 134° Southeast 263 303 6,000 -540 Descending Albuquerque Center
01:31AM 32.2347 -111.0808 143° Southeast 236 272 5,700 -900 Descending Albuquerque Center
01:31AM 32.2183 -111.0550 127° Southeast 240 276 5,100 -1,140 Descending Albuquerque Center
01:32AM 32.1953 -111.0333 142° Southeast 196 226 4,600 -900 Descending Albuquerque Center
01:32AM 32.1817 -111.0125 128° Southeast 211 243 4,200 -900 Descending Albuquerque Center
01:33AM 32.1622 -110.9944 142° Southeast 169 194 3,700 -240 Descending Albuquerque Center
01:33AM 32.1483 -110.9697 124° Southeast 205 236 4,000 -840 Climbing Albuquerque Center
01:34AM 32.1314 -110.9575 149° Southeast 161 185 2,900 -2,460 Descending Albuquerque Center